PST,Max TemperatureF,Mean TemperatureF,Min TemperatureF,Max Dew PointF,MeanDew PointF,Min DewpointF,Max Humidity, Mean Humidity, Min Humidity, Max Sea Level PressureIn, Mean Sea Level PressureIn, Min Sea Level PressureIn, Max VisibilityMiles, Mean VisibilityMiles, Min VisibilityMiles, Max Wind SpeedMPH, Mean Wind SpeedMPH, Max Gust SpeedMPH,PrecipitationIn, CloudCover, Events, WindDirDegrees
2014-2-1,25,13,1,20,11,-3,92,83,74,30.26,30.17,30.08,10,8,2,8,4,9,T,5,Fog-Snow,34
2014-2-2,27,25,22,22,20,18,92,87,81,30.12,30.01,29.85,10,8,2,12,6,13,0.01,8,Snow,3
2014-2-3,24,16,7,19,15,3,92,83,74,30.25,30.05,29.86,10,6,1,14,6,16,0.02,6,Snow,1
2014-2-4,15,8,1,4,-2,-10,88,71,53,30.56,30.43,30.27,10,10,10,24,12,29,0.00,3,,32
2014-2-5,11,5,-1,-8,-10,-13,62,54,45,30.65,30.58,30.48,10,10,10,24,13,30,0.00,3,,50
2014-2-6,14,5,-5,5,-5,-12,72,60,48,30.47,30.18,29.75,10,9,1,15,9,20,0.02,5,Snow,48
2014-2-7,13,9,4,7,5,1,88,79,70,30.03,29.90,29.68,10,4,0,14,7,18,0.08,7,Snow,64
2014-2-8,23,17,10,9,6,3,76,64,52,30.21,30.08,29.93,10,10,9,15,8,17,T,7,Snow,35
2014-2-9,21,19,17,17,14,7,92,80,67,30.22,30.12,29.88,10,6,1,17,5,20,0.02,8,Snow,86
2014-2-10,27,24,20,25,21,17,100,91,81,30.25,30.16,30.01,10,4,0,15,5,17,0.22,8,Fog-Snow,92
2014-2-11,37,31,25,35,29,25,100,85,70,30.17,30.05,29.87,10,6,0,21,9,27,0.10,7,Rain,196
2014-2-12,46,41,36,38,35,31,100,79,58,29.80,29.68,29.47,10,9,5,38,20,46,0.15,5,Rain-Snow,199
2014-2-13,46,40,34,37,31,26,92,71,49,30.05,29.87,29.68,10,10,10,37,18,47,T,4,Rain,221
2014-2-14,46,39,32,41,33,27,100,83,65,29.96,29.82,29.67,10,9,2,30,13,37,0.06,6,Rain-Snow,183
2014-2-15,44,38,32,39,34,31,100,84,67,29.98,29.76,29.44,10,8,1,38,10,44,0.30,7,Fog-Rain,128
2014-2-16,41,37,32,35,28,22,92,70,48,30.00,29.81,29.58,10,10,9,35,21,41,T,6,,210
2014-2-17,45,39,32,36,30,24,76,64,51,29.90,29.71,29.62,10,10,3,38,23,49,0.03,6,Rain-Snow,222
2014-2-18,43,37,30,39,31,24,100,81,62,29.98,29.79,29.51,10,9,4,37,18,42,0.34,7,Rain,199
2014-2-19,41,35,28,26,22,16,85,61,37,30.10,29.92,29.73,10,10,10,32,19,39,0.00,3,,241
2014-2-20,43,36,29,30,26,22,92,68,43,30.10,29.98,29.89,10,8,1,36,20,43,0.05,5,Snow,219
2014-2-21,39,33,27,25,17,10,78,57,35,30.16,30.09,30.00,10,10,10,18,9,22,0.00,4,,301
2014-2-22,32,29,26,18,12,5,63,48,32,30.16,30.13,30.09,10,10,10,10,2,13,0.00,7,,92
2014-2-23,28,26,24,24,22,18,100,82,63,30.10,30.02,29.92,10,4,0,12,8,14,0.17,8,Snow,39
2014-2-24,25,24,22,22,19,17,96,85,74,30.27,30.21,30.11,10,5,0,15,9,19,0.21,8,Fog-Snow,38
2014-2-25,33,24,14,19,13,7,92,70,47,30.41,30.34,30.28,10,10,10,15,7,18,0.00,2,,46
2014-2-26,36,25,13,18,13,8,80,62,43,30.26,30.10,29.87,10,10,10,14,7,17,0.00,4,,46
2014-2-27,36,32,27,29,24,18,92,77,61,29.84,29.74,29.66,10,8,0,10,6,13,0.03,8,Rain-Snow,173
2014-2-28,36,28,20,29,24,4,92,72,52,29.77,29.72,29.63,10,6,1,35,12,43,T,8,Fog-Snow,61